Harbor Miracle — WCY7564 — position and weather

sailwx.info

Track history (hours):
 
Tides and Currents Weather Stations Pressure Air Temp Water Temp Dewpoint Dewpoint Depression Visibility Wind Speed Wind Dir Waves Ship Positions

Harbor Miracle

Owner: HARBOR HOLDING & OPERATION, SAN JUAN, PR. More information available from US FCC via Universal Licensing System.

Last reported at 2017-Sep-05 01:43 UTC. Time now 2017-Sep-22 08:06 UTC.
Position N 18°28' W 066°06'.
Warning: this ship's position is 17 days out of date.

Length 14 m; draft 1.8 m.

Type: Pilot. MMSI: 338071038.

Date/timePositionNaut miles runAvg speedWind from/ knotsBaromVisibWave heightAir tempDewpointWater temp
2017-Sep-05 01:43N 18°28' W 066°06'2 6.5
2017-Sep-05 01:28N 18°28' W 066°07'2 2.8
2017-Sep-05 00:54N 18°27' W 066°06'1 0.6
2017-Sep-04 23:02N 18°28' W 066°07'0 8.3
2017-Sep-04 23:00N 18°27' W 066°07'0 0.2
2017-Sep-04 21:51N 18°28' W 066°07'1 1.4
2017-Sep-04 21:29N 18°27' W 066°07'1 1.9
2017-Sep-04 20:53N 18°26' W 066°06'1 3.0
2017-Sep-04 20:27N 18°27' W 066°07'1 2.2
2017-Sep-04 19:48N 18°26' W 066°06'2 0.3
2017-Sep-04 14:37N 18°27' W 066°07'0 1.8
2017-Sep-04 14:21N 18°28' W 066°07'1 2.2
2017-Sep-04 13:59N 18°27' W 066°07'1 1.0
2017-Sep-04 12:38N 18°27' W 066°05'2 3.3
2017-Sep-04 12:09N 18°27' W 066°07'1 8.0
2017-Sep-04 12:00N 18°28' W 066°08'1 1.2
2017-Sep-04 10:56N 18°27' W 066°07'2 3.6
2017-Sep-04 10:28N 18°26' W 066°06'1 1.0
2017-Sep-04 09:53N 18°26' W 066°06'2 2.8
2017-Sep-04 09:18N 18°27' W 066°07'0 0.4
2017-Sep-04 08:08N 18°28' W 066°06'1 6.3
2017-Sep-04 08:00N 18°28' W 066°07'2 1.7
2017-Sep-04 06:54N 18°27' W 066°06'1 0.5
2017-Sep-04 04:30N 18°28' W 066°06'2 3.1
2017-Sep-04 04:00N 18°26' W 066°06'2 2.0
2017-Sep-04 02:54N 18°28' W 066°08'0 1.3
2017-Sep-04 02:30N 18°28' W 066°07'1 1.1
2017-Sep-04 01:58N 18°28' W 066°07'1 0.2
2017-Sep-03 21:04N 18°28' W 066°06'1 7.7
2017-Sep-03 20:54N 18°27' W 066°07'1 0.4
2017-Sep-03 17:35N 18°28' W 066°06'1 9.9
2017-Sep-03 17:28N 18°27' W 066°07'0 0.0
2017-Sep-03 09:38N 18°28' W 066°07'1 1.2
2017-Sep-03 09:07N 18°27' W 066°07'1 8.9
2017-Sep-03 09:01N 18°28' W 066°07'1 0.1
2017-Sep-03 01:26N 18°28' W 066°07'1 3.1
2017-Sep-03 00:59N 18°29' W 066°08'1 1.4
2017-Sep-02 23:58N 18°28' W 066°07'2 0.3
2017-Sep-02 17:06N 18°26' W 066°06'0 0.4
2017-Sep-02 16:51N 18°26' W 066°06'2 4.4
2017-Sep-02 16:24N 18°28' W 066°07'2 2.5
2017-Sep-02 15:39N 18°26' W 066°07'1 6.5
2017-Sep-02 15:28N 18°27' W 066°07'1 2.1
2017-Sep-02 14:45N 18°28' W 066°08'2 3.3
2017-Sep-02 14:18N 18°27' W 066°07'1 0.3
2017-Sep-02 10:51N 18°28' W 066°06'3 4.1
2017-Sep-02 10:12N 18°29' W 066°08'210.2
2017-Sep-02 10:00N 18°27' W 066°07'0 0.4
2017-Sep-02 09:07N 18°27' W 066°07'0 2.8
2017-Sep-02 09:00N 18°27' W 066°07'1 0.3
2017-Sep-02 06:31N 18°28' W 066°06'0 9.8
2017-Sep-02 06:30N 18°28' W 066°06'0 0.5
2017-Sep-02 05:58N 18°27' W 066°07'1 0.5
2017-Sep-02 03:42N 18°28' W 066°06'2 7.9
2017-Sep-02 03:30N 18°28' W 066°07'2 2.5
2017-Sep-02 02:44N 18°27' W 066°05'1 1.4
2017-Sep-02 01:57N 18°28' W 066°06'1 1.9
2017-Sep-02 01:27N 18°27' W 066°05'2 2.0
2017-Sep-02 00:38N 18°28' W 066°07'0 0.3
2017-Sep-01 23:09N 18°27' W 066°07'1 7.7
2017-Sep-01 23:00N 18°28' W 066°08'1 0.2
2017-Sep-01 16:32N 18°27' W 066°07'121.4
2017-Sep-01 16:31N 18°28' W 066°07'2 2.8
2017-Sep-01 15:44N 18°26' W 066°06'2 0.7
2017-Sep-01 12:51N 18°28' W 066°06'1 2.6
2017-Sep-01 12:26N 18°27' W 066°05'1 0.7
2017-Sep-01 11:00N 18°28' W 066°05'2 2.2
2017-Sep-01 10:18N 18°26' W 066°06'2 1.5
2017-Sep-01 09:13N 18°27' W 066°07'0 0.0
2017-Sep-01 05:35N 18°27' W 066°07'110.8
2017-Sep-01 05:28N 18°28' W 066°08'3 2.3
2017-Sep-01 04:11N 18°27' W 066°05'314.8
2017-Sep-01 04:00N 18°28' W 066°08'3 3.9
2017-Sep-01 03:19N 18°26' W 066°06'2 0.1
2017-Aug-31 12:21N 18°28' W 066°06'0 1.0
2017-Aug-31 11:53N 18°27' W 066°07'1 3.5
2017-Aug-31 11:30N 18°27' W 066°05'1 0.2
2017-Aug-31 04:51N 18°28' W 066°06'1 1.4
2017-Aug-31 04:16N 18°28' W 066°06'1 0.5
2017-Aug-31 01:40N 18°26' W 066°07'1 9.2
2017-Aug-31 01:30N 18°28' W 066°07'1 1.5
2017-Aug-31 01:00N 18°27' W 066°07'0 0.6
2017-Aug-31 00:18N 18°27' W 066°07'2 2.9
2017-Aug-30 23:43N 18°26' W 066°07'314.1
2017-Aug-30 23:30N 18°29' W 066°08'1 1.5
2017-Aug-30 23:00N 18°28' W 066°08'2 5.0
2017-Aug-30 22:31N 18°27' W 066°05'1 1.3
2017-Aug-30 21:46N 18°28' W 066°06'1 5.5
2017-Aug-30 21:30N 18°27' W 066°07'0 0.1
2017-Aug-30 19:50N 18°27' W 066°07'0 1.2
2017-Aug-30 19:30N 18°28' W 066°07'2 3.2
2017-Aug-30 18:56N 18°26' W 066°06'2 4.0
2017-Aug-30 18:27N 18°28' W 066°05'0 0.0
2017-Aug-30 18:00N 18°28' W 066°05'0 0.0
2017-Aug-30 17:08N 18°28' W 066°05'1 7.1
2017-Aug-30 16:57N 18°27' W 066°07'1 0.8
2017-Aug-30 15:15N 18°28' W 066°05'1 1.4
2017-Aug-30 14:18N 18°27' W 066°07'1 1.8
2017-Aug-30 13:34N 18°28' W 066°05'0 0.0
2017-Aug-30 13:30N 18°28' W 066°05'0 0.0
2017-Aug-30 12:46N 18°28' W 066°05'1 3.0
2017-Aug-30 12:20N 18°27' W 066°07'1 2.6
2017-Aug-30 11:49N 18°28' W 066°05'0 0.0
2017-Aug-30 11:28N 18°28' W 066°05'0 0.0
2017-Aug-30 11:00N 18°28' W 066°05'1 1.9
2017-Aug-30 10:23N 18°27' W 066°07'1 2.0
2017-Aug-30 10:01N 18°28' W 066°07'2 2.9
2017-Aug-30 09:21N 18°28' W 066°05'0 0.0
2017-Aug-30 09:00N 18°28' W 066°05'0 0.0
2017-Aug-30 08:30N 18°28' W 066°05'0 0.0
2017-Aug-30 07:54N 18°28' W 066°05'0 0.0
2017-Aug-30 07:30N 18°28' W 066°05'0 0.0
2017-Aug-30 07:00N 18°28' W 066°05'1 2.3
2017-Aug-30 06:26N 18°27' W 066°07'0 0.7
2017-Aug-30 05:51N 18°27' W 066°07'0 0.1
2017-Aug-30 05:28N 18°27' W 066°07'1 2.3
2017-Aug-30 04:52N 18°28' W 066°05'0 0.0
2017-Aug-30 04:27N 18°28' W 066°05'0 0.0
2017-Aug-30 03:57N 18°28' W 066°05'0 0.0
2017-Aug-30 03:29N 18°28' W 066°05'2 3.3
2017-Aug-30 03:00N 18°27' W 066°07'2 2.7
2017-Aug-30 02:25N 18°28' W 066°05'0 0.0
2017-Aug-30 01:55N 18°28' W 066°05'0 0.0
2017-Aug-30 01:30N 18°28' W 066°05'2 4.0
2017-Aug-30 00:58N 18°26' W 066°06'2 4.2
2017-Aug-30 00:28N 18°28' W 066°05'0 0.0
2017-Aug-29 23:32N 18°28' W 066°05'0 0.0
2017-Aug-29 23:30N 18°28' W 066°05'0 0.0
2017-Aug-29 23:00N 18°28' W 066°05'0 0.0
2017-Aug-29 22:30N 18°28' W 066°05'0 0.0
2017-Aug-29 22:00N 18°28' W 066°05'1 0.0
2017-Aug-28 11:04N 18°28' W 066°06'114.7
2017-Aug-28 11:00N 18°28' W 066°07'2 3.2
2017-Aug-28 10:21N 18°26' W 066°06'1 2.0
2017-Aug-28 09:39N 18°27' W 066°07'0 0.2
2017-Aug-28 09:21N 18°27' W 066°07'0 0.7
2017-Aug-28 08:51N 18°28' W 066°06'1 2.7
2017-Aug-28 08:30N 18°28' W 066°05'0 0.0
2017-Aug-28 08:00N 18°28' W 066°05'0 0.0
2017-Aug-28 07:30N 18°28' W 066°05'0 0.0
2017-Aug-28 07:00N 18°28' W 066°05'0 0.0
2017-Aug-28 06:30N 18°28' W 066°05'0 0.0
2017-Aug-28 06:00N 18°28' W 066°05'0 0.0
2017-Aug-28 05:30N 18°28' W 066°05'2 4.2
2017-Aug-28 04:58N 18°28' W 066°08'3 3.8
2017-Aug-28 04:11N 18°26' W 066°05'0 1.3
2017-Aug-28 04:00N 18°27' W 066°05'0 0.8
2017-Aug-28 03:29N 18°27' W 066°06'3 3.5
2017-Aug-28 02:35N 18°29' W 066°08'111.1
2017-Aug-28 02:30N 18°28' W 066°08'2 4.1
2017-Aug-28 01:57N 18°28' W 066°05'0 0.0
2017-Aug-28 01:30N 18°28' W 066°05'0 0.0
2017-Aug-28 01:00N 18°28' W 066°05'0 0.0
2017-Aug-28 00:29N 18°28' W 066°05'0 0.0
2017-Aug-27 23:53N 18°28' W 066°05'0 0.0
2017-Aug-27 23:26N 18°28' W 066°05'0 0.0
2017-Aug-27 23:00N 18°28' W 066°05'0 0.0
2017-Aug-27 22:30N 18°28' W 066°05'0 0.0
2017-Aug-27 21:53N 18°28' W 066°05'0 0.0
2017-Aug-27 21:28N 18°28' W 066°05'0 0.0
2017-Aug-27 20:25N 18°28' W 066°05'1 2.5
2017-Aug-27 19:52N 18°27' W 066°07'0 0.4
2017-Aug-27 19:20N 18°27' W 066°07'0 0.9
2017-Aug-27 18:51N 18°28' W 066°06'1 1.7
2017-Aug-27 18:20N 18°28' W 066°05'2 6.5
2017-Aug-27 18:00N 18°28' W 066°08'2 4.4
2017-Aug-27 17:26N 18°26' W 066°06'0 0.3
2017-Aug-27 16:59N 18°26' W 066°06'2 2.6
2017-Aug-27 16:14N 18°28' W 066°05'0 0.0
2017-Aug-27 15:53N 18°28' W 066°05'0 0.0
2017-Aug-27 15:15N 18°28' W 066°05'0 0.0
2017-Aug-27 14:56N 18°28' W 066°05'0 0.0
2017-Aug-27 14:29N 18°28' W 066°05'0 0.0
2017-Aug-27 13:59N 18°28' W 066°05'0 0.0
2017-Aug-27 13:13N 18°28' W 066°05'0 0.0
2017-Aug-27 12:56N 18°28' W 066°05'0 0.0
2017-Aug-27 12:30N 18°28' W 066°05'0 0.0
2017-Aug-27 12:00N 18°28' W 066°05'0 0.0
2017-Aug-27 11:25N 18°28' W 066°05'0 0.0
2017-Aug-27 10:54N 18°28' W 066°05'0 0.0
2017-Aug-27 10:29N 18°28' W 066°05'0 0.0
2017-Aug-27 09:54N 18°28' W 066°05'0 0.0
2017-Aug-27 09:26N 18°28' W 066°05'0 0.0
2017-Aug-27 09:00N 18°28' W 066°05'0 0.0
2017-Aug-27 08:29N 18°28' W 066°05'0 0.0
2017-Aug-27 07:59N 18°28' W 066°05'0 0.0
2017-Aug-27 07:30N 18°28' W 066°05'0 0.0
2017-Aug-27 06:59N 18°28' W 066°05'0 0.0
2017-Aug-27 06:30N 18°28' W 066°05'0 0.0
2017-Aug-27 06:01N 18°28' W 066°05'0 0.0
2017-Aug-27 05:30N 18°28' W 066°05'0 0.0
2017-Aug-27 05:00N 18°28' W 066°05'0 0.0
2017-Aug-27 04:30N 18°28' W 066°05'0 0.0
2017-Aug-27 04:00N 18°28' W 066°05'0 0.0
2017-Aug-27 03:27N 18°28' W 066°05'0 0.0
2017-Aug-27 03:00N 18°28' W 066°05'0 0.0
2017-Aug-27 02:26N 18°28' W 066°05'0 0.0
2017-Aug-27 02:00N 18°28' W 066°05'0 0.0
2017-Aug-27 01:30N 18°28' W 066°05'0 0.0
2017-Aug-27 01:00N 18°28' W 066°05'0 0.0
2017-Aug-27 00:29N 18°28' W 066°05'0 0.0
2017-Aug-26 23:58N 18°28' W 066°05'0 0.0
2017-Aug-26 23:29N 18°28' W 066°05'0 0.0
2017-Aug-26 22:53N 18°28' W 066°05'0 0.0
2017-Aug-26 22:29N 18°28' W 066°05'0 0.0
2017-Aug-26 21:59N 18°28' W 066°05'0 0.0
2017-Aug-26 21:30N 18°28' W 066°05'0 0.0
2017-Aug-26 21:00N 18°28' W 066°05'0 0.0
2017-Aug-26 20:27N 18°28' W 066°05'0 0.0
2017-Aug-26 20:00N 18°28' W 066°05'0 0.0
2017-Aug-26 19:28N 18°28' W 066°05'0 0.0
2017-Aug-26 18:51N 18°28' W 066°05'0 0.0
2017-Aug-26 18:30N 18°28' W 066°05'0 0.0
2017-Aug-26 17:59N 18°28' W 066°05'0 0.0
2017-Aug-26 17:29N 18°28' W 066°05'0 0.0
2017-Aug-26 16:55N 18°28' W 066°05'0 0.0
2017-Aug-26 16:29N 18°28' W 066°05'0 0.0
2017-Aug-26 15:50N 18°28' W 066°05'0 0.0
2017-Aug-26 15:28N 18°28' W 066°05'0 0.0
2017-Aug-26 15:00N 18°28' W 066°05'0 0.0
2017-Aug-26 13:57N 18°28' W 066°05'0 0.0
2017-Aug-26 13:28N 18°28' W 066°05'0 0.0
2017-Aug-26 12:54N 18°28' W 066°05'0 0.0
2017-Aug-26 12:26N 18°28' W 066°05'0 0.0
2017-Aug-26 11:56N 18°28' W 066°05'0 0.0
2017-Aug-26 11:29N 18°28' W 066°05'0 0.0
2017-Aug-26 10:59N 18°28' W 066°05'0 0.0
2017-Aug-26 10:17N 18°28' W 066°05'0 0.0
2017-Aug-26 09:59N 18°28' W 066°05'0 0.0
2017-Aug-26 09:30N 18°28' W 066°05'0 0.0
2017-Aug-26 08:54N 18°28' W 066°05'0 0.0
2017-Aug-26 08:23N 18°28' W 066°05'0 0.0
2017-Aug-26 07:57N 18°28' W 066°05'0 0.0
2017-Aug-26 07:30N 18°28' W 066°05'0 0.0
2017-Aug-26 06:55N 18°28' W 066°05'0 0.0
2017-Aug-26 06:28N 18°28' W 066°05'0 0.0
2017-Aug-26 05:59N 18°28' W 066°05'0 0.0
2017-Aug-26 05:25N 18°28' W 066°05'0 0.0
2017-Aug-26 04:57N 18°28' W 066°05'0 0.0
2017-Aug-26 04:30N 18°28' W 066°05'0 0.0
2017-Aug-26 03:59N 18°28' W 066°05'0 0.0
2017-Aug-26 03:27N 18°28' W 066°05'  
Track history (hours):
 
Tides and Currents Weather Stations Pressure Air Temp Water Temp Dewpoint Dewpoint Depression Visibility Wind Speed Wind Dir Waves Ship Positions

Harbor Miracle

Owner: HARBOR HOLDING & OPERATION, SAN JUAN, PR. More information available from US FCC via Universal Licensing System.

Last reported at 2017-Sep-05 01:43 UTC. Time now 2017-Sep-22 08:06 UTC.
Position N 18°28' W 066°06'.
Warning: this ship's position is 17 days out of date.

Length 14 m; draft 1.8 m.

Type: Pilot. MMSI: 338071038.

Date/timePositionNaut miles runAvg speedWind from/ knotsBaromVisibWave heightAir tempDewpointWater temp
2017-Sep-05 01:43N 18°28' W 066°06'2 6.5
2017-Sep-05 01:28N 18°28' W 066°07'2 2.8
2017-Sep-05 00:54N 18°27' W 066°06'1 0.6
2017-Sep-04 23:02N 18°28' W 066°07'0 8.3
2017-Sep-04 23:00N 18°27' W 066°07'0 0.2
2017-Sep-04 21:51N 18°28' W 066°07'1 1.4
2017-Sep-04 21:29N 18°27' W 066°07'1 1.9
2017-Sep-04 20:53N 18°26' W 066°06'1 3.0
2017-Sep-04 20:27N 18°27' W 066°07'1 2.2
2017-Sep-04 19:48N 18°26' W 066°06'2 0.3
2017-Sep-04 14:37N 18°27' W 066°07'0 1.8
2017-Sep-04 14:21N 18°28' W 066°07'1 2.2
2017-Sep-04 13:59N 18°27' W 066°07'1 1.0
2017-Sep-04 12:38N 18°27' W 066°05'2 3.3
2017-Sep-04 12:09N 18°27' W 066°07'1 8.0
2017-Sep-04 12:00N 18°28' W 066°08'1 1.2
2017-Sep-04 10:56N 18°27' W 066°07'2 3.6
2017-Sep-04 10:28N 18°26' W 066°06'1 1.0
2017-Sep-04 09:53N 18°26' W 066°06'2 2.8
2017-Sep-04 09:18N 18°27' W 066°07'0 0.4
2017-Sep-04 08:08N 18°28' W 066°06'1 6.3
2017-Sep-04 08:00N 18°28' W 066°07'2 1.7
2017-Sep-04 06:54N 18°27' W 066°06'1 0.5
2017-Sep-04 04:30N 18°28' W 066°06'2 3.1
2017-Sep-04 04:00N 18°26' W 066°06'2 2.0
2017-Sep-04 02:54N 18°28' W 066°08'0 1.3
2017-Sep-04 02:30N 18°28' W 066°07'1 1.1
2017-Sep-04 01:58N 18°28' W 066°07'1 0.2
2017-Sep-03 21:04N 18°28' W 066°06'1 7.7
2017-Sep-03 20:54N 18°27' W 066°07'1 0.4
2017-Sep-03 17:35N 18°28' W 066°06'1 9.9
2017-Sep-03 17:28N 18°27' W 066°07'0 0.0
2017-Sep-03 09:38N 18°28' W 066°07'1 1.2
2017-Sep-03 09:07N 18°27' W 066°07'1 8.9
2017-Sep-03 09:01N 18°28' W 066°07'1 0.1
2017-Sep-03 01:26N 18°28' W 066°07'1 3.1
2017-Sep-03 00:59N 18°29' W 066°08'1 1.4
2017-Sep-02 23:58N 18°28' W 066°07'2 0.3
2017-Sep-02 17:06N 18°26' W 066°06'0 0.4
2017-Sep-02 16:51N 18°26' W 066°06'2 4.4
2017-Sep-02 16:24N 18°28' W 066°07'2 2.5
2017-Sep-02 15:39N 18°26' W 066°07'1 6.5
2017-Sep-02 15:28N 18°27' W 066°07'1 2.1
2017-Sep-02 14:45N 18°28' W 066°08'2 3.3
2017-Sep-02 14:18N 18°27' W 066°07'1 0.3
2017-Sep-02 10:51N 18°28' W 066°06'3 4.1
2017-Sep-02 10:12N 18°29' W 066°08'210.2
2017-Sep-02 10:00N 18°27' W 066°07'0 0.4
2017-Sep-02 09:07N 18°27' W 066°07'0 2.8
2017-Sep-02 09:00N 18°27' W 066°07'1 0.3
2017-Sep-02 06:31N 18°28' W 066°06'0 9.8
2017-Sep-02 06:30N 18°28' W 066°06'0 0.5
2017-Sep-02 05:58N 18°27' W 066°07'1 0.5
2017-Sep-02 03:42N 18°28' W 066°06'2 7.9
2017-Sep-02 03:30N 18°28' W 066°07'2 2.5
2017-Sep-02 02:44N 18°27' W 066°05'1 1.4
2017-Sep-02 01:57N 18°28' W 066°06'1 1.9
2017-Sep-02 01:27N 18°27' W 066°05'2 2.0
2017-Sep-02 00:38N 18°28' W 066°07'0 0.3
2017-Sep-01 23:09N 18°27' W 066°07'1 7.7
2017-Sep-01 23:00N 18°28' W 066°08'1 0.2
2017-Sep-01 16:32N 18°27' W 066°07'121.4
2017-Sep-01 16:31N 18°28' W 066°07'2 2.8
2017-Sep-01 15:44N 18°26' W 066°06'2 0.7
2017-Sep-01 12:51N 18°28' W 066°06'1 2.6
2017-Sep-01 12:26N 18°27' W 066°05'1 0.7
2017-Sep-01 11:00N 18°28' W 066°05'2 2.2
2017-Sep-01 10:18N 18°26' W 066°06'2 1.5
2017-Sep-01 09:13N 18°27' W 066°07'0 0.0
2017-Sep-01 05:35N 18°27' W 066°07'110.8
2017-Sep-01 05:28N 18°28' W 066°08'3 2.3
2017-Sep-01 04:11N 18°27' W 066°05'314.8
2017-Sep-01 04:00N 18°28' W 066°08'3 3.9
2017-Sep-01 03:19N 18°26' W 066°06'2 0.1
2017-Aug-31 12:21N 18°28' W 066°06'0 1.0
2017-Aug-31 11:53N 18°27' W 066°07'1 3.5
2017-Aug-31 11:30N 18°27' W 066°05'1 0.2
2017-Aug-31 04:51N 18°28' W 066°06'1 1.4
2017-Aug-31 04:16N 18°28' W 066°06'1 0.5
2017-Aug-31 01:40N 18°26' W 066°07'1 9.2
2017-Aug-31 01:30N 18°28' W 066°07'1 1.5
2017-Aug-31 01:00N 18°27' W 066°07'0 0.6
2017-Aug-31 00:18N 18°27' W 066°07'2 2.9
2017-Aug-30 23:43N 18°26' W 066°07'314.1
2017-Aug-30 23:30N 18°29' W 066°08'1 1.5
2017-Aug-30 23:00N 18°28' W 066°08'2 5.0
2017-Aug-30 22:31N 18°27' W 066°05'1 1.3
2017-Aug-30 21:46N 18°28' W 066°06'1 5.5
2017-Aug-30 21:30N 18°27' W 066°07'0 0.1
2017-Aug-30 19:50N 18°27' W 066°07'0 1.2
2017-Aug-30 19:30N 18°28' W 066°07'2 3.2
2017-Aug-30 18:56N 18°26' W 066°06'2 4.0
2017-Aug-30 18:27N 18°28' W 066°05'0 0.0
2017-Aug-30 18:00N 18°28' W 066°05'0 0.0
2017-Aug-30 17:08N 18°28' W 066°05'1 7.1
2017-Aug-30 16:57N 18°27' W 066°07'1 0.8
2017-Aug-30 15:15N 18°28' W 066°05'1 1.4
2017-Aug-30 14:18N 18°27' W 066°07'1 1.8
2017-Aug-30 13:34N 18°28' W 066°05'0 0.0
2017-Aug-30 13:30N 18°28' W 066°05'0 0.0
2017-Aug-30 12:46N 18°28' W 066°05'1 3.0
2017-Aug-30 12:20N 18°27' W 066°07'1 2.6
2017-Aug-30 11:49N 18°28' W 066°05'0 0.0
2017-Aug-30 11:28N 18°28' W 066°05'0 0.0
2017-Aug-30 11:00N 18°28' W 066°05'1 1.9
2017-Aug-30 10:23N 18°27' W 066°07'1 2.0
2017-Aug-30 10:01N 18°28' W 066°07'2 2.9
2017-Aug-30 09:21N 18°28' W 066°05'0 0.0
2017-Aug-30 09:00N 18°28' W 066°05'0 0.0
2017-Aug-30 08:30N 18°28' W 066°05'0 0.0
2017-Aug-30 07:54N 18°28' W 066°05'0 0.0
2017-Aug-30 07:30N 18°28' W 066°05'0 0.0
2017-Aug-30 07:00N 18°28' W 066°05'1 2.3
2017-Aug-30 06:26N 18°27' W 066°07'0 0.7
2017-Aug-30 05:51N 18°27' W 066°07'0 0.1
2017-Aug-30 05:28N 18°27' W 066°07'1 2.3
2017-Aug-30 04:52N 18°28' W 066°05'0 0.0
2017-Aug-30 04:27N 18°28' W 066°05'0 0.0
2017-Aug-30 03:57N 18°28' W 066°05'0 0.0
2017-Aug-30 03:29N 18°28' W 066°05'2 3.3
2017-Aug-30 03:00N 18°27' W 066°07'2 2.7
2017-Aug-30 02:25N 18°28' W 066°05'0 0.0
2017-Aug-30 01:55N 18°28' W 066°05'0 0.0
2017-Aug-30 01:30N 18°28' W 066°05'2 4.0
2017-Aug-30 00:58N 18°26' W 066°06'2 4.2
2017-Aug-30 00:28N 18°28' W 066°05'0 0.0
2017-Aug-29 23:32N 18°28' W 066°05'0 0.0
2017-Aug-29 23:30N 18°28' W 066°05'0 0.0
2017-Aug-29 23:00N 18°28' W 066°05'0 0.0
2017-Aug-29 22:30N 18°28' W 066°05'0 0.0
2017-Aug-29 22:00N 18°28' W 066°05'1 0.0
2017-Aug-28 11:04N 18°28' W 066°06'114.7
2017-Aug-28 11:00N 18°28' W 066°07'2 3.2
2017-Aug-28 10:21N 18°26' W 066°06'1 2.0
2017-Aug-28 09:39N 18°27' W 066°07'0 0.2
2017-Aug-28 09:21N 18°27' W 066°07'0 0.7
2017-Aug-28 08:51N 18°28' W 066°06'1 2.7
2017-Aug-28 08:30N 18°28' W 066°05'0 0.0
2017-Aug-28 08:00N 18°28' W 066°05'0 0.0
2017-Aug-28 07:30N 18°28' W 066°05'0 0.0
2017-Aug-28 07:00N 18°28' W 066°05'0 0.0
2017-Aug-28 06:30N 18°28' W 066°05'0 0.0
2017-Aug-28 06:00N 18°28' W 066°05'0 0.0
2017-Aug-28 05:30N 18°28' W 066°05'2 4.2
2017-Aug-28 04:58N 18°28' W 066°08'3 3.8
2017-Aug-28 04:11N 18°26' W 066°05'0 1.3
2017-Aug-28 04:00N 18°27' W 066°05'0 0.8
2017-Aug-28 03:29N 18°27' W 066°06'3 3.5
2017-Aug-28 02:35N 18°29' W 066°08'111.1
2017-Aug-28 02:30N 18°28' W 066°08'2 4.1
2017-Aug-28 01:57N 18°28' W 066°05'0 0.0
2017-Aug-28 01:30N 18°28' W 066°05'0 0.0
2017-Aug-28 01:00N 18°28' W 066°05'0 0.0
2017-Aug-28 00:29N 18°28' W 066°05'0 0.0
2017-Aug-27 23:53N 18°28' W 066°05'0 0.0
2017-Aug-27 23:26N 18°28' W 066°05'0 0.0
2017-Aug-27 23:00N 18°28' W 066°05'0 0.0
2017-Aug-27 22:30N 18°28' W 066°05'0 0.0
2017-Aug-27 21:53N 18°28' W 066°05'0 0.0
2017-Aug-27 21:28N 18°28' W 066°05'0 0.0
2017-Aug-27 20:25N 18°28' W 066°05'1 2.5
2017-Aug-27 19:52N 18°27' W 066°07'0 0.4
2017-Aug-27 19:20N 18°27' W 066°07'0 0.9
2017-Aug-27 18:51N 18°28' W 066°06'1 1.7
2017-Aug-27 18:20N 18°28' W 066°05'2 6.5
2017-Aug-27 18:00N 18°28' W 066°08'2 4.4
2017-Aug-27 17:26N 18°26' W 066°06'0 0.3
2017-Aug-27 16:59N 18°26' W 066°06'2 2.6
2017-Aug-27 16:14N 18°28' W 066°05'0 0.0
2017-Aug-27 15:53N 18°28' W 066°05'0 0.0
2017-Aug-27 15:15N 18°28' W 066°05'0 0.0
2017-Aug-27 14:56N 18°28' W 066°05'0 0.0
2017-Aug-27 14:29N 18°28' W 066°05'0 0.0
2017-Aug-27 13:59N 18°28' W 066°05'0 0.0
2017-Aug-27 13:13N 18°28' W 066°05'0 0.0
2017-Aug-27 12:56N 18°28' W 066°05'0 0.0
2017-Aug-27 12:30N 18°28' W 066°05'0 0.0
2017-Aug-27 12:00N 18°28' W 066°05'0 0.0
2017-Aug-27 11:25N 18°28' W 066°05'0 0.0
2017-Aug-27 10:54N 18°28' W 066°05'0 0.0
2017-Aug-27 10:29N 18°28' W 066°05'0 0.0
2017-Aug-27 09:54N 18°28' W 066°05'0 0.0
2017-Aug-27 09:26N 18°28' W 066°05'0 0.0
2017-Aug-27 09:00N 18°28' W 066°05'0 0.0
2017-Aug-27 08:29N 18°28' W 066°05'0 0.0
2017-Aug-27 07:59N 18°28' W 066°05'0 0.0
2017-Aug-27 07:30N 18°28' W 066°05'0 0.0
2017-Aug-27 06:59N 18°28' W 066°05'0 0.0
2017-Aug-27 06:30N 18°28' W 066°05'0 0.0
2017-Aug-27 06:01N 18°28' W 066°05'0 0.0
2017-Aug-27 05:30N 18°28' W 066°05'0 0.0
2017-Aug-27 05:00N 18°28' W 066°05'0 0.0
2017-Aug-27 04:30N 18°28' W 066°05'0 0.0
2017-Aug-27 04:00N 18°28' W 066°05'0 0.0
2017-Aug-27 03:27N 18°28' W 066°05'0 0.0
2017-Aug-27 03:00N 18°28' W 066°05'0 0.0
2017-Aug-27 02:26N 18°28' W 066°05'0 0.0
2017-Aug-27 02:00N 18°28' W 066°05'0 0.0
2017-Aug-27 01:30N 18°28' W 066°05'0 0.0
2017-Aug-27 01:00N 18°28' W 066°05'0 0.0
2017-Aug-27 00:29N 18°28' W 066°05'0 0.0
2017-Aug-26 23:58N 18°28' W 066°05'0 0.0
2017-Aug-26 23:29N 18°28' W 066°05'0 0.0
2017-Aug-26 22:53N 18°28' W 066°05'0 0.0
2017-Aug-26 22:29N 18°28' W 066°05'0 0.0
2017-Aug-26 21:59N 18°28' W 066°05'0 0.0
2017-Aug-26 21:30N 18°28' W 066°05'0 0.0
2017-Aug-26 21:00N 18°28' W 066°05'0 0.0
2017-Aug-26 20:27N 18°28' W 066°05'0 0.0
2017-Aug-26 20:00N 18°28' W 066°05'0 0.0
2017-Aug-26 19:28N 18°28' W 066°05'0 0.0
2017-Aug-26 18:51N 18°28' W 066°05'0 0.0
2017-Aug-26 18:30N 18°28' W 066°05'0 0.0
2017-Aug-26 17:59N 18°28' W 066°05'0 0.0
2017-Aug-26 17:29N 18°28' W 066°05'0 0.0
2017-Aug-26 16:55N 18°28' W 066°05'0 0.0
2017-Aug-26 16:29N 18°28' W 066°05'0 0.0
2017-Aug-26 15:50N 18°28' W 066°05'0 0.0
2017-Aug-26 15:28N 18°28' W 066°05'0 0.0
2017-Aug-26 15:00N 18°28' W 066°05'0 0.0
2017-Aug-26 13:57N 18°28' W 066°05'0 0.0
2017-Aug-26 13:28N 18°28' W 066°05'0 0.0
2017-Aug-26 12:54N 18°28' W 066°05'0 0.0
2017-Aug-26 12:26N 18°28' W 066°05'0 0.0
2017-Aug-26 11:56N 18°28' W 066°05'0 0.0
2017-Aug-26 11:29N 18°28' W 066°05'0 0.0
2017-Aug-26 10:59N 18°28' W 066°05'0 0.0
2017-Aug-26 10:17N 18°28' W 066°05'0 0.0
2017-Aug-26 09:59N 18°28' W 066°05'0 0.0
2017-Aug-26 09:30N 18°28' W 066°05'0 0.0
2017-Aug-26 08:54N 18°28' W 066°05'0 0.0
2017-Aug-26 08:23N 18°28' W 066°05'0 0.0
2017-Aug-26 07:57N 18°28' W 066°05'0 0.0
2017-Aug-26 07:30N 18°28' W 066°05'0 0.0
2017-Aug-26 06:55N 18°28' W 066°05'0 0.0
2017-Aug-26 06:28N 18°28' W 066°05'0 0.0
2017-Aug-26 05:59N 18°28' W 066°05'0 0.0
2017-Aug-26 05:25N 18°28' W 066°05'0 0.0
2017-Aug-26 04:57N 18°28' W 066°05'0 0.0
2017-Aug-26 04:30N 18°28' W 066°05'0 0.0
2017-Aug-26 03:59N 18°28' W 066°05'0 0.0
2017-Aug-26 03:27N 18°28' W 066°05'  

Dump ship's entire track history